Time;durP1;ratioP1;P1;durP2;ratioP2;P2;SDS_P1;SDS_P2;PMS_P1;PMS_P2;Temp;Humidity;BMP_temperature;BMP_pressure;BME280_temperature;BME280_humidity;BME280_pressure;Samples;Min_cycle;Max_cycle;Signal;HPM_P1;HPM_P2
2021/06/01 00:02:13;;;;;;;3.90;3.60;;;;;;;10.18;60.18;95604.81;4992828;28;20031;-70
2021/06/01 00:04:38;;;;;;;4.38;4.00;;;;;;;10.27;60.50;95632.38;4989636;28;20195;-70
2021/06/01 00:07:03;;;;;;;4.00;3.70;;;;;;;10.08;60.26;95599.66;4990912;28;20129;-69
2021/06/01 00:09:29;;;;;;;4.53;4.18;;;;;;;9.96;60.66;95588.69;4991062;28;20136;-69
2021/06/01 00:11:55;;;;;;;4.18;3.88;;;;;;;9.85;61.20;95582.75;4991227;28;20026;-69
2021/06/01 00:14:20;;;;;;;4.47;3.83;;;;;;;9.95;61.65;95603.06;4992629;28;20369;-69
2021/06/01 00:16:47;;;;;;;4.10;3.58;;;;;;;10.06;61.59;95625.75;4991126;28;20069;-69
2021/06/01 00:19:13;;;;;;;5.20;4.07;;;;;;;10.04;61.73;95631.38;4990950;28;20124;-69
2021/06/01 00:21:39;;;;;;;5.57;4.00;;;;;;;10.01;61.31;95629.28;4990936;28;20058;-69
2021/06/01 00:24:06;;;;;;;4.25;3.95;;;;;;;9.86;61.85;95613.53;4990444;28;20054;-68
2021/06/01 00:26:32;;;;;;;4.93;4.20;;;;;;;9.80;61.77;95602.19;4992570;28;20486;-69
2021/06/01 00:28:57;;;;;;;4.25;3.90;;;;;;;9.61;61.62;95574.84;4990766;28;20124;-68
2021/06/01 00:31:23;;;;;;;4.75;4.35;;;;;;;9.71;62.29;95593.28;4987848;28;20126;-69
2021/06/01 00:33:48;;;;;;;4.60;4.18;;;;;;;9.82;62.61;95618.63;4990231;28;20089;-69
2021/06/01 00:36:14;;;;;;;4.72;4.30;;;;;;;9.68;63.45;95601.06;4989432;28;20038;-68
2021/06/01 00:38:39;;;;;;;4.45;4.05;;;;;;;9.71;63.26;95609.22;4992668;28;20049;-69
2021/06/01 00:41:05;;;;;;;4.47;4.07;;;;;;;9.64;62.81;95592.88;4990692;28;20035;-69
2021/06/01 00:43:31;;;;;;;4.28;3.97;;;;;;;9.54;62.77;95582.38;4990370;28;20228;-69
2021/06/01 00:45:57;;;;;;;5.68;3.92;;;;;;;9.40;63.03;95576.97;4989014;28;20046;-69
2021/06/01 00:48:22;;;;;;;6.18;4.25;;;;;;;9.48;63.96;95605.56;4989282;28;20092;-70
2021/06/01 00:50:48;;;;;;;4.50;4.10;;;;;;;9.60;63.74;95607.78;4989171;28;20022;-67
2021/06/01 00:53:13;;;;;;;5.43;4.38;;;;;;;9.67;63.69;95623.34;4992022;28;20484;-69
2021/06/01 00:55:38;;;;;;;4.90;4.07;;;;;;;9.70;63.02;95620.16;4990371;28;20129;-69
2021/06/01 00:58:04;;;;;;;5.25;4.85;;;;;;;9.68;63.43;95620.44;4990355;28;20195;-69
2021/06/01 01:02:58;;;;;;;7.65;4.28;;;;;;;9.67;63.79;95623.34;4988809;28;20109;-69
2021/06/01 01:05:30;;;;;;;4.97;4.55;;;;;;;9.54;63.69;95600.97;4992045;28;20508;-69
2021/06/01 01:10:57;;;;;;;5.15;4.70;;;;;;;9.53;64.96;95612.66;4989920;28;20035;-69
2021/06/01 01:13:23;;;;;;;5.40;5.00;;;;;;;9.47;64.81;95592.53;4989563;28;20694;-68
2021/06/01 01:15:51;;;;;;;5.40;4.50;;;;;;;9.50;64.63;95598.06;4989753;28;20038;-69
2021/06/01 01:18:21;;;;;;;5.53;5.03;;;;;;;9.47;65.29;95598.66;4989491;28;20043;-68
2021/06/01 01:21:06;;;;;;;5.25;4.63;;;;;;;9.42;65.52;95597.91;4991730;28;20451;-69
2021/06/01 01:23:35;;;;;;;5.35;4.85;;;;;;;9.42;65.57;95601.38;4988501;28;20440;-69
2021/06/01 01:26:13;;;;;;;6.00;5.47;;;;;;;9.42;65.35;95597.91;4988296;28;20097;-69
2021/06/01 01:29:15;;;;;;;8.73;4.80;;;;;;;9.37;65.63;95599.59;4988556;28;20038;-69
2021/06/01 01:31:48;;;;;;;5.45;4.95;;;;;;;9.18;66.05;95568.75;4989641;28;20105;-69
2021/06/01 01:34:15;;;;;;;5.38;4.85;;;;;;;9.06;65.64;95550.59;4987870;28;20088;-69
2021/06/01 01:36:44;;;;;;;5.18;4.78;;;;;;;9.31;66.05;95600.69;4988220;28;20046;-69
2021/06/01 01:39:10;;;;;;;5.43;4.93;;;;;;;9.11;66.28;95572.56;4989543;28;20096;-68
2021/06/01 01:41:37;;;;;;;4.93;4.53;;;;;;;9.19;67.45;95596.88;4991534;28;20543;-68
2021/06/01 01:44:11;;;;;;;4.97;4.40;;;;;;;9.06;66.79;95582.44;4987770;28;20118;-69
2021/06/01 01:49:11;;;;;;;5.50;5.10;;;;;;;8.74;66.11;95522.81;4989551;28;20035;-69
2021/06/01 01:51:43;;;;;;;6.25;4.97;;;;;;;9.09;66.46;95579.22;4988406;28;20040;-69
2021/06/01 01:54:14;;;;;;;5.85;5.28;;;;;;;8.90;66.41;95547.31;4987769;28;20097;-69
2021/06/01 01:56:43;;;;;;;7.55;5.22;;;;;;;9.14;66.69;95584.44;4991272;28;20109;-69
2021/06/01 01:59:11;;;;;;;5.30;4.90;;;;;;;9.04;66.68;95576.59;4988296;28;20121;-69
2021/06/01 02:01:39;;;;;;;6.15;5.45;;;;;;;8.82;67.17;95551.38;4988523;28;20059;-70
2021/06/01 02:04:05;;;;;;;5.68;5.05;;;;;;;9.02;67.20;95589.38;4989498;28;20081;-70
2021/06/01 02:06:31;;;;;;;6.10;5.53;;;;;;;8.84;68.03;95564.34;4989617;28;20057;-70
2021/06/01 02:08:57;;;;;;;6.20;5.65;;;;;;;8.75;67.86;95548.28;4989862;28;20030;-69
2021/06/01 02:11:22;;;;;;;5.65;5.20;;;;;;;8.82;68.05;95563.88;4991794;28;20108;-69
2021/06/01 02:14:02;;;;;;;6.40;5.70;;;;;;;8.86;68.21;95588.75;4989244;28;20031;-70
2021/06/01 02:16:29;;;;;;;5.55;5.05;;;;;;;8.82;68.19;95579.78;4987925;28;20034;-69
2021/06/01 02:18:54;;;;;;;6.68;6.00;;;;;;;8.58;68.70;95546.06;4989233;28;20085;-69
2021/06/01 02:24:15;;;;;;;6.85;6.10;;;;;;;8.38;68.77;95530.34;4989035;28;20032;-69
2021/06/01 02:26:51;;;;;;;7.88;6.13;;;;;;;8.63;69.71;95573.59;4990806;28;20073;-69
2021/06/01 02:29:43;;;;;;;6.32;5.82;;;;;;;8.57;69.87;95564.91;4992332;28;20038;-69
2021/06/01 02:32:09;;;;;;;7.53;6.93;;;;;;;8.54;69.71;95560.16;4990976;28;20042;-70
2021/06/01 02:34:39;;;;;;;7.15;6.55;;;;;;;8.52;69.27;95557.00;4992731;28;20035;-68
2021/06/01 02:37:07;;;;;;;7.65;6.70;;;;;;;8.27;69.87;95524.31;4992954;28;20112;-69
2021/06/01 02:39:33;;;;;;;7.68;6.55;;;;;;;8.43;70.13;95558.69;4991434;28;20039;-69
2021/06/01 02:41:59;;;;;;;7.65;6.70;;;;;;;8.18;70.38;95526.00;4991571;28;20041;-69
2021/06/01 02:44:25;;;;;;;8.25;7.10;;;;;;;8.21;69.78;95533.41;4993268;28;20109;-69
2021/06/01 02:46:51;;;;;;;7.72;6.78;;;;;;;8.18;70.02;95541.09;4991243;28;20645;-70
2021/06/01 02:49:18;;;;;;;7.82;6.97;;;;;;;8.16;70.67;95537.97;4992580;28;20129;-69
2021/06/01 02:51:43;;;;;;;6.60;5.90;;;;;;;8.27;70.72;95561.44;4992590;28;20041;-68
2021/06/01 02:54:09;;;;;;;13.30;6.30;;;;;;;8.03;70.87;95534.88;4992081;28;20039;-70
2021/06/01 02:56:35;;;;;;;7.95;7.00;;;;;;;8.26;71.13;95574.97;4994124;28;20088;-70
2021/06/01 02:59:04;;;;;;;7.85;6.78;;;;;;;8.16;71.42;95559.94;5002814;23;20019;-64
2021/06/01 03:01:30;;;;;;;8.48;7.13;;;;;;;8.23;71.69;95564.91;4972804;28;20097;-65
2021/06/01 03:03:56;;;;;;;7.18;6.57;;;;;;;8.19;71.11;95572.66;4987226;28;20038;-64
2021/06/01 03:06:23;;;;;;;8.35;7.20;;;;;;;8.21;71.75;95578.44;4972396;28;20552;-64
2021/06/01 03:08:49;;;;;;;8.50;7.47;;;;;;;8.13;71.99;95565.00;4972637;28;20023;-64
2021/06/01 03:11:17;;;;;;;8.93;8.07;;;;;;;8.18;71.30;95571.03;4974629;28;20416;-65
2021/06/01 03:13:44;;;;;;;8.10;7.30;;;;;;;8.16;71.42;95564.47;4972222;28;20094;-64
2021/06/01 03:16:10;;;;;;;7.38;6.68;;;;;;;8.24;71.89;95577.91;4972606;28;20094;-65
2021/06/01 03:18:36;;;;;;;8.25;7.55;;;;;;;8.19;71.44;95572.66;4972512;28;20452;-65
2021/06/01 03:21:02;;;;;;;7.60;6.82;;;;;;;8.24;71.56;95575.25;4972656;28;20077;-65
2021/06/01 03:23:27;;;;;;;8.27;7.40;;;;;;;8.18;71.41;95570.25;4972631;28;20381;-65
2021/06/01 03:25:52;;;;;;;8.02;7.32;;;;;;;8.25;71.12;95578.69;4972468;28;20031;-65
2021/06/01 03:28:19;;;;;;;8.88;7.97;;;;;;;8.08;71.40;95552.56;4970983;28;20066;-65
2021/06/01 03:30:45;;;;;;;8.95;8.02;;;;;;;8.25;71.18;95573.41;4972551;28;20117;-65
2021/06/01 03:33:10;;;;;;;8.40;7.38;;;;;;;8.23;71.70;95576.31;4971542;28;20038;-65
2021/06/01 03:35:36;;;;;;;8.52;6.97;;;;;;;8.18;72.04;95584.28;4974157;28;20027;-65
2021/06/01 03:38:02;;;;;;;7.03;6.38;;;;;;;8.04;72.02;95552.38;4972252;28;20046;-65
2021/06/01 03:40:27;;;;;;;8.23;6.80;;;;;;;8.14;72.29;95567.38;5002692;28;20420;-65
2021/06/01 03:42:53;;;;;;;8.45;7.40;;;;;;;8.26;72.24;95578.41;4970311;28;20178;-65
2021/06/01 03:45:20;;;;;;;7.53;6.82;;;;;;;8.32;72.21;95579.94;4971968;28;20039;-65
2021/06/01 03:47:46;;;;;;;7.63;6.95;;;;;;;8.27;72.16;95569.38;5005113;28;20027;-65
2021/06/01 03:50:11;;;;;;;7.55;6.80;;;;;;;8.42;71.87;95579.09;5003149;28;20557;-65
2021/06/01 03:52:37;;;;;;;11.02;7.25;;;;;;;8.49;71.96;95573.47;4971574;28;20338;-65
2021/06/01 03:55:04;;;;;;;7.70;7.00;;;;;;;8.54;71.50;95570.75;4971759;28;20121;-65
2021/06/01 03:57:29;;;;;;;8.00;7.28;;;;;;;8.56;71.64;95558.03;4970353;28;20031;-65
2021/06/01 03:59:55;;;;;;;6.93;6.22;;;;;;;8.71;71.22;95559.75;4970525;28;20030;-65
2021/06/01 04:02:21;;;;;;;10.95;5.65;;;;;;;9.16;70.50;95579.66;4973284;28;20484;-65
2021/06/01 04:04:49;;;;;;;4.80;4.40;;;;;;;9.57;69.57;95576.47;4971937;28;20034;-65
2021/06/01 04:07:14;;;;;;;5.65;4.50;;;;;;;9.95;68.31;95561.34;4971574;28;20034;-66
2021/06/01 04:09:40;;;;;;;5.43;4.70;;;;;;;10.40;66.23;95569.69;4971793;28;20070;-64
2021/06/01 04:12:06;;;;;;;5.18;4.38;;;;;;;10.87;65.24;95576.56;4971607;28;20049;-67
2021/06/01 04:14:31;;;;;;;6.35;4.18;;;;;;;11.15;63.64;95561.38;4973356;28;20034;-67
2021/06/01 04:16:57;;;;;;;4.50;4.10;;;;;;;11.59;62.92;95567.16;4971608;28;20051;-67
2021/06/01 04:19:24;;;;;;;6.35;4.68;;;;;;;11.84;61.89;95555.97;4971422;28;20385;-67
2021/06/01 04:21:52;;;;;;;5.07;4.57;;;;;;;12.17;59.61;95569.84;4970742;28;20031;-71
2021/06/01 04:24:18;;;;;;;5.57;3.72;;;;;;;12.42;59.15;95573.78;4971728;28;20061;-65
2021/06/01 04:26:43;;;;;;;4.10;3.63;;;;;;;12.59;58.20;95565.13;4973122;28;20030;-67
2021/06/01 04:29:09;;;;;;;4.90;4.05;;;;;;;12.85;57.36;95559.91;4971094;28;20077;-67
2021/06/01 04:31:34;;;;;;;4.18;3.72;;;;;;;13.07;56.85;95563.59;4969833;28;20592;-67
2021/06/01 04:33:59;;;;;;;5.82;4.35;;;;;;;13.30;55.54;95562.44;4970858;28;20035;-67
2021/06/01 04:36:25;;;;;;;4.22;3.92;;;;;;;13.52;55.01;95570.38;4971490;28;20477;-68
2021/06/01 04:38:52;;;;;;;5.97;3.58;;;;;;;13.76;54.67;95575.25;4970290;28;20085;-67
2021/06/01 04:41:17;;;;;;;7.57;4.00;;;;;;;13.97;53.36;95572.78;4971815;28;20184;-67
2021/06/01 04:43:43;;;;;;;4.60;4.20;;;;;;;14.08;53.42;95564.44;4970940;28;20051;-67
2021/06/01 04:46:09;;;;;;;4.75;3.90;;;;;;;13.95;51.41;95550.91;4969865;28;20043;-68
2021/06/01 04:48:34;;;;;;;3.63;3.33;;;;;;;14.28;51.76;95567.25;4970905;28;20050;-68
2021/06/01 04:51:00;;;;;;;4.68;3.78;;;;;;;14.46;52.17;95564.53;4970442;28;20110;-67
2021/06/01 04:53:25;;;;;;;3.75;2.97;;;;;;;14.52;51.26;95569.44;4971867;28;20484;-67
2021/06/01 04:55:50;;;;;;;3.63;3.28;;;;;;;14.58;50.71;95572.72;4970724;28;20043;-67
2021/06/01 04:58:16;;;;;;;5.50;2.95;;;;;;;14.62;50.59;95568.31;4970756;28;20492;-67
2021/06/01 05:00:41;;;;;;;3.80;3.47;;;;;;;14.64;49.35;95568.78;4970676;28;20053;-67
2021/06/01 05:03:07;;;;;;;3.05;2.80;;;;;;;14.69;49.39;95565.13;4960165;28;20823;-67
2021/06/01 05:05:33;;;;;;;5.28;3.50;;;;;;;14.79;48.76;95557.56;4971477;28;20034;-67
2021/06/01 05:07:58;;;;;;;3.80;3.13;;;;;;;14.73;48.96;95558.03;4970674;28;20402;-68
2021/06/01 05:10:23;;;;;;;3.30;3.00;;;;;;;14.89;48.13;95560.97;4970650;28;20090;-67
2021/06/01 05:12:49;;;;;;;3.50;3.20;;;;;;;14.90;47.76;95563.38;4970435;28;20137;-68
2021/06/01 05:15:14;;;;;;;4.38;3.03;;;;;;;14.79;47.76;95556.75;4970626;28;20039;-67
2021/06/01 05:17:41;;;;;;;3.30;3.00;;;;;;;14.99;48.24;95553.38;4972239;28;20027;-68
2021/06/01 05:20:07;;;;;;;3.67;3.40;;;;;;;15.05;48.18;95556.69;4970518;28;20110;-68
2021/06/01 05:22:33;;;;;;;3.92;3.20;;;;;;;15.02;48.12;95558.09;4968818;28;20544;-67
2021/06/01 05:24:58;;;;;;;3.65;3.33;;;;;;;15.23;48.24;95560.06;4970037;28;20137;-68
2021/06/01 05:27:24;;;;;;;3.13;2.88;;;;;;;15.37;48.40;95567.88;4970766;28;20373;-68
2021/06/01 05:29:54;;;;;;;4.78;2.80;;;;;;;15.47;47.79;95557.56;4989069;28;20322;-67
2021/06/01 05:35:16;;;;;;;15.00;4.80;;;;;;;15.80;47.24;95563.06;4959156;28;20038;-67
2021/06/01 05:37:41;;;;;;;4.15;3.10;;;;;;;15.83;47.01;95556.28;4989547;28;20511;-68
2021/06/01 05:40:07;;;;;;;5.07;2.70;;;;;;;15.81;45.75;95561.94;4989582;28;20031;-68
2021/06/01 05:42:32;;;;;;;2.90;2.60;;;;;;;15.75;44.86;95560.56;4989170;28;20440;-68
2021/06/01 05:44:58;;;;;;;6.70;3.00;;;;;;;15.68;45.63;95557.63;4989413;28;20049;-67
2021/06/01 05:47:23;;;;;;;3.10;2.83;;;;;;;15.56;45.43;95555.63;4991259;28;20116;-68
2021/06/01 05:49:48;;;;;;;3.30;2.90;;;;;;;15.06;45.61;95559.03;4987929;28;20097;-68
2021/06/01 05:52:14;;;;;;;4.90;2.67;;;;;;;14.93;46.45;95561.91;4988835;28;20507;-68
2021/06/01 05:54:39;;;;;;;3.25;2.95;;;;;;;15.22;46.13;95559.28;4987848;28;20046;-69
2021/06/01 05:57:05;;;;;;;3.70;3.25;;;;;;;15.14;45.70;95545.91;4989206;28;20068;-68
2021/06/01 05:59:32;;;;;;;3.00;2.80;;;;;;;15.33;45.74;95557.03;4991125;28;20034;-67
2021/06/01 06:01:57;;;;;;;4.95;3.20;;;;;;;15.46;46.06;95558.69;4988996;28;20062;-68
2021/06/01 06:04:22;;;;;;;3.20;2.53;;;;;;;15.45;46.11;95548.28;4992429;28;20058;-67
2021/06/01 06:06:48;;;;;;;3.13;2.80;;;;;;;15.38;45.81;95543.44;4993388;28;20046;-67
2021/06/01 06:09:13;;;;;;;4.85;2.92;;;;;;;15.34;46.61;95551.31;4993204;28;20066;-68
2021/06/01 06:11:39;;;;;;;3.35;3.05;;;;;;;15.45;45.69;95554.41;4995161;28;20073;-68
2021/06/01 06:14:05;;;;;;;2.97;2.70;;;;;;;15.52;45.67;95557.38;4992630;28;20046;-66
2021/06/01 06:16:35;;;;;;;7.55;2.67;;;;;;;15.42;45.56;95544.38;4991646;28;20403;-68
2021/06/01 06:19:00;;;;;;;3.30;2.58;;;;;;;15.49;45.72;95544.63;4992881;28;20035;-66
2021/06/01 06:21:26;;;;;;;4.30;2.60;;;;;;;15.64;45.72;95561.28;4992853;28;20484;-67
2021/06/01 06:23:52;;;;;;;3.47;3.17;;;;;;;15.60;45.84;95556.53;4992651;28;20027;-67
2021/06/01 06:26:17;;;;;;;3.40;3.10;;;;;;;15.36;46.40;95552.91;4994577;28;20392;-67
2021/06/01 06:28:43;;;;;;;3.35;3.10;;;;;;;15.65;45.93;95539.50;4991467;28;20117;-67
2021/06/01 06:31:09;;;;;;;4.28;2.65;;;;;;;15.69;45.65;95535.06;4991379;28;20078;-68
2021/06/01 06:33:34;;;;;;;4.07;2.78;;;;;;;15.89;45.26;95546.13;4992338;28;20034;-67
2021/06/01 06:36:00;;;;;;;2.90;2.70;;;;;;;15.95;44.54;95552.88;4992912;28;20034;-68
2021/06/01 06:38:25;;;;;;;3.33;3.00;;;;;;;16.06;44.95;95544.06;4994615;28;20037;-67
2021/06/01 06:43:26;;;;;;;8.38;2.90;;;;;;;15.85;44.12;95536.03;4992396;28;20034;-68
2021/06/01 06:45:51;;;;;;;3.70;2.83;;;;;;;16.01;42.94;95541.59;4992576;28;20084;-68
2021/06/01 06:48:16;;;;;;;22.15;3.35;;;;;;;16.01;43.44;95540.81;4991065;28;20499;-69
2021/06/01 06:50:42;;;;;;;5.38;2.55;;;;;;;15.87;43.68;95538.41;4994436;28;20109;-67
2021/06/01 06:53:07;;;;;;;2.65;2.33;;;;;;;16.03;43.41;95533.25;4991946;28;20045;-67
2021/06/01 06:55:34;;;;;;;7.05;2.90;;;;;;;16.06;42.45;95544.06;4992648;28;20042;-68
2021/06/01 06:57:59;;;;;;;4.80;2.83;;;;;;;16.02;43.24;95527.09;4990888;28;20500;-67
2021/06/01 07:00:25;;;;;;;4.05;2.92;;;;;;;15.85;43.40;95538.72;4992224;28;20165;-67
2021/06/01 07:02:52;;;;;;;3.03;2.55;;;;;;;16.37;43.62;95542.84;4990683;28;20018;-68
2021/06/01 07:05:19;;;;;;;3.22;2.72;;;;;;;16.34;41.87;95548.91;4992879;28;20481;-67
2021/06/01 07:07:48;;;;;;;19.13;5.35;;;;;;;16.32;42.86;95548.44;4990221;28;20196;-68
2021/06/01 07:10:14;;;;;;;2.80;2.30;;;;;;;16.47;42.68;95550.50;4992019;28;20042;-68
2021/06/01 07:12:42;;;;;;;8.27;3.25;;;;;;;16.63;42.46;95547.97;4991460;28;20073;-68
2021/06/01 07:15:20;;;;;;;6.03;2.83;;;;;;;16.67;42.01;95554.25;4988480;28;20051;-68
2021/06/01 07:17:46;;;;;;;11.95;2.83;;;;;;;16.81;42.00;95551.28;4993953;28;20113;-68
2021/06/01 07:20:15;;;;;;;5.78;2.95;;;;;;;16.95;40.87;95546.41;4991834;28;20052;-68
2021/06/01 07:22:40;;;;;;;4.15;2.63;;;;;;;16.95;40.61;95537.56;4991402;28;20034;-72
2021/06/01 07:25:07;;;;;;;3.45;2.72;;;;;;;17.15;39.82;95550.91;4990299;28;20097;-68
2021/06/01 07:27:32;;;;;;;3.58;2.47;;;;;;;16.65;41.00;95537.69;4989100;28;20057;-68
2021/06/01 07:29:57;;;;;;;4.72;2.67;;;;;;;16.86;40.50;95556.47;4988740;28;20038;-70
2021/06/01 07:32:23;;;;;;;6.85;2.63;;;;;;;16.99;40.41;95547.28;4991995;28;20022;-68
2021/06/01 07:34:49;;;;;;;3.13;2.80;;;;;;;16.98;39.78;95542.25;4991235;28;20388;-68
2021/06/01 07:37:16;;;;;;;3.58;2.75;;;;;;;16.64;40.72;95542.28;4991673;28;20047;-68
2021/06/01 07:39:41;;;;;;;9.35;3.33;;;;;;;16.73;38.89;95539.50;4990962;28;20039;-73
2021/06/01 07:42:07;;;;;;;5.60;2.72;;;;;;;16.89;39.99;95532.41;4990029;28;20030;-70
2021/06/01 07:44:33;;;;;;;3.58;2.63;;;;;;;16.83;39.18;95530.25;4992255;28;20179;-68
2021/06/01 07:46:59;;;;;;;3.30;3.00;;;;;;;17.07;38.95;95530.28;4990249;28;20172;-67
2021/06/01 07:49:25;;;;;;;4.50;2.78;;;;;;;17.25;39.01;95533.53;4988863;28;20518;-67
2021/06/01 07:51:50;;;;;;;3.97;2.97;;;;;;;17.12;38.70;95537.34;4988730;28;20046;-68
2021/06/01 07:54:16;;;;;;;10.85;5.40;;;;;;;17.41;38.08;95528.25;4990111;28;20054;-67
2021/06/01 07:56:41;;;;;;;4.45;2.38;;;;;;;17.08;36.83;95523.00;4993087;28;20027;-66
2021/06/01 07:59:06;;;;;;;11.20;3.20;;;;;;;17.25;37.83;95533.53;4989424;28;20045;-66
2021/06/01 08:01:32;;;;;;;4.63;2.53;;;;;;;16.87;36.83;95521.19;4991229;28;20129;-73
2021/06/01 08:03:57;;;;;;;3.55;2.20;;;;;;;16.96;37.21;95529.16;4990337;28;20101;-69
2021/06/01 08:06:24;;;;;;;4.40;2.47;;;;;;;17.18;36.51;95527.91;4990605;28;20038;-66
2021/06/01 08:08:50;;;;;;;3.88;2.60;;;;;;;17.18;36.68;95522.53;4990959;28;20088;-66
2021/06/01 08:11:15;;;;;;;4.40;2.58;;;;;;;17.34;37.73;95509.97;4991567;28;20488;-69
2021/06/01 08:13:41;;;;;;;2.72;2.50;;;;;;;17.37;37.53;95521.97;4990558;28;20042;-68
2021/06/01 08:16:06;;;;;;;2.40;2.20;;;;;;;17.68;36.73;95526.75;4991202;28;20097;-67
2021/06/01 08:18:37;;;;;;;4.40;2.67;;;;;;;17.57;35.93;95522.97;4990981;28;20041;-67
2021/06/01 08:21:12;;;;;;;4.35;2.47;;;;;;;17.74;36.25;95511.19;4991258;28;20033;-71
2021/06/01 08:23:37;;;;;;;3.38;2.20;;;;;;;17.80;35.84;95499.84;4976121;28;20031;-64
2021/06/01 08:26:03;;;;;;;2.30;1.77;;;;;;;17.95;33.33;95516.41;4990875;28;20122;-66
2021/06/01 08:28:30;;;;;;;2.30;2.03;;;;;;;17.77;34.38;95508.63;4989567;28;20134;-67
2021/06/01 08:30:55;;;;;;;4.32;2.65;;;;;;;18.05;33.71;95507.84;4990835;28;20045;-70
2021/06/01 08:33:21;;;;;;;2.40;2.20;;;;;;;17.99;34.89;95504.63;4989103;28;20436;-70
2021/06/01 08:35:48;;;;;;;4.53;2.35;;;;;;;18.19;33.98;95508.25;4991535;28;20030;-70
2021/06/01 08:38:16;;;;;;;2.38;2.00;;;;;;;18.50;34.48;95521.00;4990830;28;20034;-68
2021/06/01 08:40:42;;;;;;;8.32;2.45;;;;;;;18.50;34.35;95514.81;4990799;28;20489;-73
2021/06/01 08:43:19;;;;;;;2.78;2.00;;;;;;;18.56;32.71;95511.53;4990236;28;20037;-67
2021/06/01 08:45:50;;;;;;;2.88;1.88;;;;;;;18.60;33.73;95509.72;4981242;28;20062;-80
2021/06/01 08:48:17;;;;;;;3.40;1.85;;;;;;;18.64;32.93;95512.50;4971156;28;20035;-68
2021/06/01 08:50:45;;;;;;;4.97;2.15;;;;;;;18.41;33.19;95498.81;4972755;28;20027;-67
2021/06/01 08:53:10;;;;;;;3.88;1.98;;;;;;;18.69;33.32;95517.66;4970312;28;20034;-67
2021/06/01 08:55:36;;;;;;;2.65;2.45;;;;;;;18.51;33.76;95506.38;4970808;28;20573;-66
2021/06/01 08:58:02;;;;;;;2.25;2.05;;;;;;;18.85;34.28;95518.47;4969740;28;20038;-69
2021/06/01 09:00:27;;;;;;;2.00;1.90;;;;;;;19.04;32.05;95523.16;4970705;28;20742;-66
2021/06/01 09:03:06;;;;;;;3.22;2.13;;;;;;;18.83;32.64;95514.53;4970363;28;20023;-72
2021/06/01 09:05:31;;;;;;;3.88;2.25;;;;;;;19.06;32.35;95507.41;4973062;28;20027;-67
2021/06/01 09:08:04;;;;;;;1.77;1.67;;;;;;;18.62;31.09;95502.06;4970624;28;20042;-72
2021/06/01 09:21:13;;;;;;;1.73;1.63;;;;;;;18.50;31.23;95491.38;4969634;28;20069;-80
2021/06/01 09:23:55;;;;;;;2.90;2.00;;;;;;;18.55;31.92;95474.94;4970802;28;20034;-68
2021/06/01 09:27:00;;;;;;;9.23;2.20;;;;;;;18.22;32.32;95493.28;4970754;28;20039;-66
2021/06/01 09:29:28;;;;;;;1.73;1.63;;;;;;;17.98;31.56;95414.22;4971487;28;20049;-76
2021/06/01 09:32:08;;;;;;;2.58;1.88;;;;;;;18.33;30.84;95418.97;4968469;28;20035;-79
2021/06/01 09:34:36;;;;;;;4.60;2.72;;;;;;;18.88;31.71;95490.78;4968254;28;20031;-69
2021/06/01 09:37:35;;;;;;;1.92;1.80;;;;;;;18.65;32.37;95479.03;4969866;28;20050;-68
2021/06/01 09:40:05;;;;;;;1.95;1.73;;;;;;;19.02;32.28;95487.66;4947844;28;20526;-68
2021/06/01 09:42:32;;;;;;;6.15;2.00;;;;;;;18.99;32.04;95469.50;4969334;28;20050;-69
2021/06/01 09:45:13;;;;;;;3.20;2.15;;;;;;;19.23;31.75;95480.06;4969790;28;20110;-69
2021/06/01 09:47:47;;;;;;;2.08;1.88;;;;;;;19.26;32.97;95480.53;4971670;28;20038;-71
2021/06/01 09:50:34;;;;;;;3.60;2.10;;;;;;;19.36;31.47;95464.56;4969873;28;20041;-70
2021/06/01 09:53:33;;;;;;;3.08;2.00;;;;;;;19.27;32.00;95474.75;4968153;28;20046;-70
2021/06/01 09:56:00;;;;;;;2.65;2.40;;;;;;;19.48;32.47;95439.38;4967225;28;20141;-73
2021/06/01 09:58:30;;;;;;;3.50;2.38;;;;;;;19.90;31.05;95466.50;4969715;28;20047;-68
2021/06/01 10:00:58;;;;;;;1.88;1.63;;;;;;;19.89;31.94;95477.66;4969618;28;20635;-69
2021/06/01 10:03:26;;;;;;;2.15;2.05;;;;;;;19.81;31.28;95455.16;4969284;28;20046;-68
2021/06/01 10:05:55;;;;;;;2.35;1.88;;;;;;;20.14;31.25;95468.13;4969775;28;20026;-69
2021/06/01 10:08:26;;;;;;;2.22;2.00;;;;;;;19.79;31.15;95453.91;4971377;28;20030;-68
2021/06/01 10:11:03;;;;;;;1.80;1.70;;;;;;;20.09;31.36;95460.31;4969836;28;20130;-68
2021/06/01 10:13:34;;;;;;;2.60;2.30;;;;;;;20.00;32.34;95465.13;4969185;28;20493;-70
2021/06/01 10:16:03;;;;;;;4.82;1.77;;;;;;;20.23;31.59;95455.19;4969697;28;20039;-69
2021/06/01 10:18:30;;;;;;;2.80;1.85;;;;;;;20.32;30.87;95451.44;4968022;28;20043;-68
2021/06/01 10:20:57;;;;;;;3.97;2.33;;;;;;;20.48;30.76;95442.16;4969303;28;20030;-67
2021/06/01 10:23:28;;;;;;;4.05;2.08;;;;;;;20.18;31.40;95449.28;4971386;28;20054;-85
2021/06/01 10:25:54;;;;;;;3.73;2.30;;;;;;;20.43;35.49;95452.44;4968554;28;20041;-59
2021/06/01 10:28:26;;;;;;;3.03;2.10;;;;;;;20.41;31.00;95444.69;4969311;28;20053;-60
2021/06/01 10:30:54;;;;;;;2.20;2.00;;;;;;;20.36;32.75;95442.28;4969522;28;20042;-60
2021/06/01 10:33:20;;;;;;;2.13;2.00;;;;;;;20.20;32.17;95449.72;4968715;28;20039;-60
2021/06/01 10:50:23;;;;;;;2.25;2.05;;;;;;;19.74;30.78;95442.25;4971658;28;20050;-66
2021/06/01 10:53:17;;;;;;;3.05;2.20;;;;;;;19.81;31.02;95430.84;4972673;28;20051;-72
2021/06/01 10:55:48;;;;;;;5.95;2.00;;;;;;;20.21;31.75;95425.03;4971497;28;20125;-65
2021/06/01 10:58:15;;;;;;;2.78;1.90;;;;;;;20.21;30.68;95422.31;4972887;28;20047;-67
2021/06/01 11:03:12;;;;;;;4.30;2.20;;;;;;;19.74;31.53;95355.91;4972567;28;20050;-65
2021/06/01 11:05:59;;;;;;;2.03;1.90;;;;;;;20.20;32.23;95426.16;4974764;28;20031;-66
2021/06/01 11:08:37;;;;;;;12.57;2.75;;;;;;;20.20;31.42;95423.47;4973285;28;20441;-67
2021/06/01 11:11:39;;;;;;;2.70;2.50;;;;;;;20.48;30.89;95422.47;4972940;28;20031;-66
2021/06/01 11:14:28;;;;;;;3.38;2.35;;;;;;;20.23;31.81;95413.88;4931355;29;20715;-65
2021/06/01 11:16:58;;;;;;;2.40;2.20;;;;;;;19.70;32.15;95402.84;4970854;28;20094;-65
2021/06/01 11:19:29;;;;;;;4.50;2.03;;;;;;;19.97;32.05;95406.47;4972565;28;20055;-66
2021/06/01 11:22:06;;;;;;;2.75;2.30;;;;;;;20.29;30.84;95409.75;4972485;28;20113;-66
2021/06/01 11:35:43;;;;;;;3.78;2.10;;;;;;;20.74;30.84;95410.91;4912742;29;20052;-66
2021/06/01 11:38:18;;;;;;;3.40;1.95;;;;;;;20.96;31.32;95403.91;4960083;28;20122;-66
2021/06/01 11:41:02;;;;;;;4.00;1.98;;;;;;;21.29;31.13;95403.19;4972540;28;20446;-66
2021/06/01 11:43:30;;;;;;;2.38;2.17;;;;;;;20.66;31.14;95382.19;4971971;28;20038;-66
2021/06/01 11:50:58;;;;;;;3.28;2.08;;;;;;;20.64;31.78;95396.09;4971444;28;20076;-66
2021/06/01 11:51:27;;;;;;;3.13;2.13;;;;;;;20.77;30.93;95392.03;4971845;28;20053;-65
2021/06/01 11:53:52;;;;;;;1.88;1.77;;;;;;;20.76;31.89;95390.47;4971368;28;20152;-66
2021/06/01 11:56:59;;;;;;;3.10;2.08;;;;;;;20.43;31.64;95395.72;4973697;28;20031;-65
2021/06/01 12:13:45;;;;;;;3.05;2.00;;;;;;;20.44;32.61;95371.03;4971231;28;20563;-66
2021/06/01 12:19:06;;;;;;;2.55;2.35;;;;;;;21.02;30.78;95359.94;4971424;28;20105;-66
2021/06/01 12:21:52;;;;;;;4.40;2.15;;;;;;;20.94;30.42;95361.00;4971400;28;20027;-66
2021/06/01 12:24:22;;;;;;;1.95;1.73;;;;;;;20.90;30.82;95367.50;4970800;28;20034;-67
2021/06/01 13:14:24;;;;;;;2.53;1.60;;;;;;;21.48;29.16;95334.66;4969229;28;20093;-71
2021/06/01 13:38:54;;;;;;;1.80;1.60;;;;;;;21.87;27.80;95299.13;4970213;28;20412;-72
2021/06/01 13:46:44;;;;;;;4.10;1.70;;;;;;;21.88;27.73;95285.22;4970186;28;20050;-72
2021/06/01 15:41:17;;;;;;;4.13;1.50;;;;;;;21.58;26.85;95239.28;4972496;28;20447;-75
2021/06/01 15:52:02;;;;;;;1.08;1.08;;;;;;;21.49;26.90;95222.56;4972227;28;20039;-66
2021/06/01 16:22:03;;;;;;;2.65;1.15;;;;;;;31.39;16.26;95212.41;4971476;28;20046;-69
2021/06/01 16:31:14;;;;;;;1.52;1.05;;;;;;;32.34;15.80;95199.63;4971657;28;20038;-69
2021/06/01 16:33:00;;;;;;;2.92;1.42;;;;;;;31.24;16.56;95214.78;4962017;28;20039;-68
2021/06/01 16:43:54;;;;;;;3.08;1.15;;;;;;;33.53;14.19;95211.63;4970847;28;20504;-69
2021/06/01 17:06:08;;;;;;;1.00;0.88;;;;;;;33.73;13.22;95207.69;4910774;29;20032;-67
2021/06/01 17:09:06;;;;;;;0.90;0.90;;;;;;;34.22;13.04;95204.22;4912338;29;20043;-66
2021/06/01 17:11:38;;;;;;;4.82;1.40;;;;;;;32.48;14.15;95204.69;4956088;28;20043;-67
2021/06/01 17:14:04;;;;;;;1.35;1.02;;;;;;;32.92;13.28;95212.28;4969684;28;20035;-66
2021/06/01 17:16:55;;;;;;;2.05;1.10;;;;;;;33.60;13.14;95205.81;4968950;28;20508;-68